createdAt,value
2022-11-16T00:02:21.529Z,21.40
2022-11-16T00:04:56.898Z,21.27
2022-11-16T00:07:25.197Z,20.47
2022-11-16T00:09:53.396Z,20.93
2022-11-16T00:12:21.698Z,20.77
2022-11-16T00:14:50.284Z,22.07
2022-11-16T00:17:21.047Z,20.73
2022-11-16T00:19:49.711Z,21.67
2022-11-16T00:22:22.696Z,21.30
2022-11-16T00:24:51.024Z,20.80
2022-11-16T00:27:19.235Z,20.57
2022-11-16T00:29:47.481Z,21.00
2022-11-16T00:32:15.646Z,20.60
2022-11-16T00:34:43.808Z,21.07
2022-11-16T00:37:12.177Z,19.17
2022-11-16T00:39:42.011Z,19.90
2022-11-16T00:42:13.956Z,21.00
2022-11-16T00:44:42.201Z,20.97
2022-11-16T00:47:10.478Z,20.03
2022-11-16T00:49:39.481Z,20.33
2022-11-16T00:52:07.761Z,19.83
2022-11-16T00:54:36.042Z,19.80
2022-11-16T00:57:23.898Z,20.23
2022-11-16T00:59:52.580Z,20.60
2022-11-16T01:02:21.617Z,20.00
2022-11-16T01:04:49.889Z,20.80
2022-11-16T01:07:18.150Z,20.10
2022-11-16T01:09:46.721Z,19.77
2022-11-16T01:12:16.182Z,19.30
2022-11-16T01:14:47.661Z,20.27
2022-11-16T01:17:16.836Z,20.57
2022-11-16T01:19:45.154Z,20.10
2022-11-16T01:22:13.429Z,20.43
2022-11-16T01:24:46.407Z,20.03
2022-11-16T01:27:14.756Z,18.70
2022-11-16T01:29:47.184Z,19.93
2022-11-16T01:32:15.542Z,20.30
2022-11-16T01:34:44.602Z,20.40
2022-11-16T01:37:36.187Z,19.20
2022-11-16T01:40:04.879Z,21.33
2022-11-16T01:42:34.742Z,19.43
2022-11-16T01:45:20.252Z,19.80
2022-11-16T01:47:50.262Z,19.90
2022-11-16T01:50:21.578Z,20.40
2022-11-16T01:53:01.620Z,20.03
2022-11-16T01:55:54.790Z,19.50
2022-11-16T01:58:31.721Z,20.53
2022-11-16T02:01:18.562Z,20.00
2022-11-16T02:03:58.916Z,20.33
2022-11-16T02:06:38.236Z,20.37
2022-11-16T02:09:54.524Z,20.87
2022-11-16T02:12:54.517Z,19.50
2022-11-16T02:15:33.581Z,20.17
2022-11-16T02:18:25.639Z,22.27
2022-11-16T02:21:14.203Z,19.80
2022-11-16T02:24:22.373Z,20.20
2022-11-16T02:27:31.588Z,21.20
2022-11-16T02:30:01.345Z,20.77
2022-11-16T02:32:36.605Z,21.30
2022-11-16T02:35:09.217Z,22.17
2022-11-16T02:37:41.848Z,20.07
2022-11-16T02:40:14.635Z,20.93
2022-11-16T02:42:49.197Z,20.40
2022-11-16T02:45:23.584Z,20.77
2022-11-16T02:47:59.565Z,20.93
2022-11-16T02:50:28.802Z,19.47
2022-11-16T02:52:57.207Z,20.20
2022-11-16T02:55:29.774Z,21.80
2022-11-16T02:58:00.622Z,20.83
2022-11-16T03:00:37.888Z,19.87
2022-11-16T03:03:22.124Z,21.37
2022-11-16T03:05:54.905Z,20.40
2022-11-16T03:08:29.923Z,20.50
2022-11-16T03:11:21.986Z,20.77
2022-11-16T03:13:52.268Z,21.30
2022-11-16T03:16:26.032Z,20.27
2022-11-16T03:18:58.585Z,13.80
2022-11-16T03:21:35.297Z,14.93
2022-11-16T03:24:04.261Z,13.80
2022-11-16T03:26:43.688Z,14.10
2022-11-16T03:29:21.397Z,14.63
2022-11-16T03:31:59.883Z,13.40
2022-11-16T03:34:38.843Z,13.80
2022-11-16T03:37:07.992Z,13.60
2022-11-16T03:39:40.450Z,13.80
2022-11-16T03:42:14.004Z,15.00
2022-11-16T03:44:47.657Z,13.20
2022-11-16T03:47:17.393Z,13.97
2022-11-16T03:49:47.731Z,13.00
2022-11-16T03:52:19.036Z,13.43
2022-11-16T03:54:49.321Z,13.53
2022-11-16T03:57:18.217Z,13.17
2022-11-16T03:59:51.633Z,13.20
2022-11-16T04:02:21.416Z,13.30
2022-11-16T04:05:09.165Z,14.47
2022-11-16T04:07:55.361Z,14.77
2022-11-16T04:10:40.863Z,13.40
2022-11-16T04:13:29.617Z,13.60
2022-11-16T04:16:15.222Z,13.10
2022-11-16T04:19:06.881Z,14.50
2022-11-16T04:21:55.305Z,13.40
2022-11-16T04:24:31.509Z,13.33
2022-11-16T04:27:26.012Z,13.60
2022-11-16T04:29:56.706Z,14.07
2022-11-16T04:32:43.929Z,13.93
2022-11-16T04:35:42.486Z,13.60
2022-11-16T04:38:13.213Z,13.50
2022-11-16T04:40:41.463Z,15.40
2022-11-16T04:43:12.844Z,13.60
2022-11-16T04:46:01.253Z,15.37
2022-11-16T04:48:37.009Z,13.83
2022-11-16T04:51:07.512Z,14.70
2022-11-16T04:53:36.589Z,13.83
2022-11-16T04:56:25.116Z,14.43
2022-11-16T04:58:54.138Z,13.20
2022-11-16T05:01:42.884Z,14.70
2022-11-16T05:04:11.494Z,13.50
2022-11-16T05:06:44.243Z,13.70
2022-11-16T05:09:12.501Z,13.60
2022-11-16T05:11:40.843Z,13.20
2022-11-16T05:14:10.216Z,13.50
2022-11-16T05:16:39.952Z,12.70
2022-11-16T05:19:25.931Z,13.40
2022-11-16T05:21:56.049Z,13.40
2022-11-16T05:24:36.401Z,14.47
2022-11-16T05:27:08.783Z,13.60
2022-11-16T05:29:37.997Z,13.53
2022-11-16T05:32:07.722Z,13.50
2022-11-16T05:34:36.046Z,13.50
2022-11-16T05:37:06.769Z,13.97
2022-11-16T05:39:35.508Z,14.37
2022-11-16T05:42:04.371Z,13.87
2022-11-16T05:44:33.284Z,14.20
2022-11-16T05:47:03.202Z,14.37
2022-11-16T05:49:32.742Z,15.20
2022-11-16T05:52:01.236Z,18.00
2022-11-16T05:54:32.579Z,18.87
2022-11-16T05:57:01.069Z,18.30
2022-11-16T05:59:30.594Z,17.60
2022-11-16T06:02:01.763Z,18.60
2022-11-16T06:04:32.376Z,18.00
2022-11-16T06:07:18.935Z,17.83
2022-11-16T06:09:48.652Z,18.27
2022-11-16T06:12:28.167Z,17.80
2022-11-16T06:15:13.168Z,17.13
2022-11-16T06:17:44.956Z,18.13
2022-11-16T06:20:17.528Z,17.90
2022-11-16T06:22:46.936Z,18.47
2022-11-16T06:25:16.816Z,17.90
2022-11-16T06:27:47.793Z,18.97
2022-11-16T06:30:19.390Z,17.17
2022-11-16T06:32:53.221Z,19.10
2022-11-16T06:35:36.078Z,18.17
2022-11-16T06:38:05.515Z,17.73
2022-11-16T06:40:35.426Z,18.37
2022-11-16T06:43:04.680Z,19.00
2022-11-16T06:45:33.235Z,18.13
2022-11-16T06:48:02.767Z,17.10
2022-11-16T06:50:31.099Z,18.17
2022-11-16T06:53:01.211Z,18.23
2022-11-16T06:55:30.895Z,17.97
2022-11-16T06:58:06.715Z,18.00
2022-11-16T07:00:42.152Z,18.03
2022-11-16T07:03:15.121Z,18.27
2022-11-16T07:05:45.597Z,18.50
2022-11-16T07:08:17.597Z,18.43
2022-11-16T07:10:52.342Z,19.77
2022-11-16T07:14:02.384Z,18.67
2022-11-16T07:16:31.649Z,17.43
2022-11-16T07:19:18.938Z,17.67
2022-11-16T07:21:47.179Z,18.00
2022-11-16T07:24:22.180Z,18.70
2022-11-16T07:26:50.737Z,19.27
2022-11-16T07:29:52.608Z,18.87
2022-11-16T07:32:40.047Z,16.00
2022-11-16T07:35:18.033Z,18.17
2022-11-16T07:37:46.634Z,18.10
2022-11-16T07:40:17.005Z,17.90
2022-11-16T07:42:46.710Z,19.83
2022-11-16T07:45:27.733Z,18.00
2022-11-16T07:48:00.243Z,16.97
2022-11-16T07:50:47.502Z,19.27
2022-11-16T07:53:23.405Z,19.30
2022-11-16T07:56:21.067Z,20.10
2022-11-16T07:58:56.474Z,18.93
2022-11-16T08:01:32.137Z,18.07
2022-11-16T08:04:02.697Z,18.00
2022-11-16T08:06:33.172Z,18.27
2022-11-16T08:09:01.450Z,18.77
2022-11-16T08:11:30.861Z,17.23
2022-11-16T08:14:49.368Z,18.80
2022-11-16T08:17:19.742Z,19.33
2022-11-16T08:19:51.235Z,19.57
2022-11-16T08:22:20.429Z,17.27
2022-11-16T08:24:49.407Z,18.30
2022-11-16T08:27:19.262Z,18.57
2022-11-16T08:29:52.175Z,19.10
2022-11-16T08:32:24.659Z,19.60
2022-11-16T08:34:54.980Z,18.87
2022-11-16T08:37:24.208Z,19.83
2022-11-16T08:40:03.634Z,20.10
2022-11-16T08:42:42.254Z,19.10
2022-11-16T08:45:12.200Z,17.73
2022-11-16T08:47:43.717Z,18.63
2022-11-16T08:50:12.190Z,18.13
2022-11-16T08:52:41.085Z,18.40
2022-11-16T08:55:14.118Z,17.67
2022-11-16T08:57:44.173Z,19.10
2022-11-16T09:00:23.050Z,19.00
2022-11-16T09:06:00.768Z,18.20
2022-11-16T09:08:29.466Z,19.07
2022-11-16T09:11:02.391Z,16.87
2022-11-16T09:13:31.046Z,19.47
2022-11-16T09:16:03.613Z,18.90
2022-11-16T09:18:37.270Z,18.77
2022-11-16T09:21:06.275Z,19.50
2022-11-16T09:23:36.810Z,17.83
2022-11-16T09:26:07.999Z,21.23
2022-11-16T09:28:58.123Z,20.27
2022-11-16T09:31:51.739Z,16.47
2022-11-16T09:34:29.797Z,18.67
2022-11-16T09:37:04.385Z,18.90
2022-11-16T09:39:36.007Z,19.53
2022-11-16T09:42:25.182Z,18.97
2022-11-16T09:45:09.034Z,18.43
2022-11-16T09:47:49.725Z,18.03
2022-11-16T09:50:39.388Z,19.00
2022-11-16T09:53:22.702Z,20.00
2022-11-16T09:55:53.844Z,19.37
2022-11-16T10:14:38.421Z,18.60
2022-11-16T10:17:15.979Z,18.63
2022-11-16T10:19:51.110Z,18.70
2022-11-16T10:22:36.690Z,19.10
2022-11-16T10:25:16.073Z,18.43
2022-11-16T10:32:22.520Z,19.10
2022-11-16T10:34:54.422Z,18.37
2022-11-16T10:37:24.276Z,17.57
2022-11-16T10:39:54.282Z,18.40
2022-11-16T10:42:29.674Z,18.53
2022-11-16T10:45:03.866Z,19.60
2022-11-16T10:47:42.854Z,18.10
2022-11-16T10:50:33.020Z,19.30
2022-11-16T10:53:02.110Z,19.13
2022-11-16T10:56:28.396Z,17.80
2022-11-16T10:59:09.054Z,16.20
2022-11-16T11:02:33.715Z,16.20
2022-11-16T11:06:28.420Z,17.50
2022-11-16T11:09:16.633Z,16.33
2022-11-16T11:12:44.846Z,16.80
2022-11-16T11:15:40.108Z,16.77
2022-11-16T11:22:34.501Z,17.13
2022-11-16T11:33:05.571Z,16.40
2022-11-16T11:52:48.434Z,16.57
2022-11-16T11:55:31.767Z,17.23
2022-11-16T11:58:04.551Z,16.37
2022-11-16T12:00:43.824Z,16.30
2022-11-16T12:07:45.462Z,16.67
2022-11-16T12:10:28.614Z,16.30
2022-11-16T12:13:12.044Z,18.50
2022-11-16T12:16:05.683Z,17.80
2022-11-16T12:18:51.130Z,17.50
2022-11-16T12:21:27.670Z,16.70
2022-11-16T17:44:30.463Z,26.23
2022-11-16T18:37:17.152Z,20.40
